createdAt,value
2022-07-26T00:04:15.236Z,0
2022-07-26T00:09:37.632Z,0
2022-07-26T00:14:59.929Z,0
2022-07-26T00:20:28.472Z,0
2022-07-26T00:25:51.511Z,0
2022-07-26T00:31:39.857Z,0
2022-07-26T00:37:02.768Z,0
2022-07-26T00:42:25.196Z,0
2022-07-26T00:47:50.681Z,0
2022-07-26T00:53:13.347Z,0
2022-07-26T00:58:36.135Z,0
2022-07-26T01:14:43.070Z,0
2022-07-26T01:20:05.752Z,0
2022-07-26T01:25:28.762Z,0
2022-07-26T01:30:53.591Z,0
2022-07-26T01:36:16.148Z,0
2022-07-26T01:41:41.711Z,0
2022-07-26T01:47:04.526Z,0
2022-07-26T01:52:29.828Z,0
2022-07-26T01:57:54.536Z,0
2022-07-26T02:03:17.196Z,0
2022-07-26T02:08:39.611Z,0
2022-07-26T02:14:02.155Z,0
2022-07-26T02:19:30.819Z,0
2022-07-26T02:24:53.258Z,0
2022-07-26T02:30:15.515Z,0
2022-07-26T02:35:38.112Z,0
2022-07-26T02:41:03.239Z,0
2022-07-26T02:46:26.004Z,0
2022-07-26T02:57:14.583Z,0
2022-07-26T03:02:40.428Z,0
2022-07-26T03:08:02.996Z,0
2022-07-26T03:13:39.490Z,0
2022-07-26T03:19:02.090Z,0
2022-07-26T03:24:24.725Z,0
2022-07-26T03:29:47.279Z,0
2022-07-26T03:35:10.487Z,0
2022-07-26T03:40:40.264Z,0
2022-07-26T03:46:02.904Z,2
2022-07-26T03:51:28.428Z,9
2022-07-26T03:56:51.757Z,13
2022-07-26T04:02:16.660Z,15
2022-07-26T04:07:40.356Z,19.6
2022-07-26T04:13:02.813Z,22.1
2022-07-26T04:18:25.588Z,23.8
2022-07-26T04:23:51.935Z,26.6
2022-07-26T04:29:52.623Z,27.2
2022-07-26T04:35:15.079Z,41.5
2022-07-26T04:40:54.951Z,45.5
2022-07-26T04:46:17.543Z,42.3
2022-07-26T04:51:40.160Z,27.8
2022-07-26T04:57:22.251Z,67.8
2022-07-26T05:02:44.835Z,97.7
2022-07-26T05:08:16.566Z,87.8
2022-07-26T05:13:39.753Z,63.9
2022-07-26T05:24:25.105Z,75.5
2022-07-26T05:29:47.722Z,89.6
2022-07-26T05:35:10.399Z,99.8
2022-07-26T05:40:40.477Z,90.4
2022-07-26T05:46:09.535Z,107.1
2022-07-26T05:51:32.675Z,143.6
2022-07-26T05:56:55.657Z,161
2022-07-26T06:02:18.275Z,163.7
2022-07-26T06:07:44.049Z,174.6
2022-07-26T06:13:07.869Z,190.7
2022-07-26T06:18:30.503Z,184
2022-07-26T06:24:16.893Z,209.2
2022-07-26T06:29:42.502Z,159.1
2022-07-26T06:35:04.907Z,210.8
2022-07-26T06:40:30.330Z,232.1
2022-07-26T06:45:52.931Z,161.5
2022-07-26T06:51:25.198Z,170.8
2022-07-26T06:56:47.808Z,162.7
2022-07-26T07:02:13.409Z,198.2
2022-07-26T07:13:16.975Z,207.6
2022-07-26T07:18:39.442Z,187.8
2022-07-26T07:24:02.304Z,183
2022-07-26T07:29:29.336Z,292.3
2022-07-26T07:35:01.063Z,299.2
2022-07-26T07:40:36.117Z,241.3
2022-07-26T07:45:58.468Z,249
2022-07-26T07:51:20.820Z,219.4
2022-07-26T07:56:43.668Z,301.8
2022-07-26T08:02:06.302Z,375
2022-07-26T08:07:36.345Z,567
2022-07-26T08:12:59.666Z,507.1
2022-07-26T08:18:25.906Z,450.4
2022-07-26T08:23:48.508Z,288.3
2022-07-26T08:29:11.703Z,265.8
2022-07-26T08:34:35.290Z,326
2022-07-26T08:40:00.254Z,406.5
2022-07-26T08:50:46.154Z,679.1
2022-07-26T08:56:09.233Z,775
2022-07-26T09:01:32.531Z,972.6
2022-07-26T09:06:56.115Z,2227.6
2022-07-26T09:12:29.157Z,583.7
2022-07-26T09:17:52.174Z,2586.3
2022-07-26T09:23:17.054Z,2953.3
2022-07-26T09:28:45.428Z,1754.4
2022-07-26T09:34:52.513Z,2408.9
2022-07-26T09:40:21.262Z,1751.7
2022-07-26T09:45:43.540Z,872.1
2022-07-26T09:51:06.800Z,2972
2022-07-26T09:56:30.841Z,2500.2
2022-07-26T10:01:56.116Z,861.8
2022-07-26T10:07:17.608Z,828
2022-07-26T10:12:39.470Z,935.7
2022-07-26T10:18:02.240Z,1049.6
2022-07-26T10:23:24.709Z,859.6
2022-07-26T10:28:56.379Z,1354.1
2022-07-26T10:34:16.728Z,621.6
2022-07-26T10:39:38.121Z,381.9
2022-07-26T10:44:59.555Z,243.8
2022-07-26T10:50:21.697Z,526.5
2022-07-26T10:55:43.981Z,550.6
2022-07-26T11:06:30.249Z,743.2
2022-07-26T11:11:53.327Z,815
2022-07-26T11:17:34.226Z,875.5
2022-07-26T11:22:57.448Z,827.4
2022-07-26T11:28:19.850Z,754.8
2022-07-26T11:33:43.559Z,740.6
2022-07-26T11:39:06.356Z,702.8
2022-07-26T11:44:28.958Z,620.2
2022-07-26T11:50:14.207Z,764.3
2022-07-26T11:55:47.782Z,1059.2
2022-07-26T12:01:11.974Z,2419.4
2022-07-26T12:06:37.919Z,1337.2
2022-07-26T12:12:00.898Z,1380.7
2022-07-26T12:17:34.532Z,2674.9
2022-07-26T12:23:01.906Z,1396.3
2022-07-26T12:28:22.942Z,2578
2022-07-26T12:33:50.968Z,2884.2
2022-07-26T13:22:51.292Z,521.2
2022-07-26T13:28:14.781Z,305.3
2022-07-26T13:33:36.520Z,480
2022-07-26T13:38:59.437Z,749.9
2022-07-26T13:44:26.116Z,2565.9
2022-07-26T13:49:52.193Z,1162.6
2022-07-26T13:55:13.951Z,1154.9
2022-07-26T14:00:35.015Z,1291.5
2022-07-26T14:06:00.027Z,2358.3
2022-07-26T14:11:23.507Z,3382.8
2022-07-26T14:16:49.370Z,865.8
2022-07-26T14:22:14.357Z,3391.3
2022-07-26T14:27:35.786Z,679.3
2022-07-26T14:32:58.355Z,3251.5
2022-07-26T14:38:29.899Z,678.5
2022-07-26T14:44:00.551Z,635.5
2022-07-26T14:54:46.191Z,1950
2022-07-26T15:00:11.903Z,3105.5
2022-07-26T15:05:34.381Z,1217
2022-07-26T15:10:56.992Z,1341.5
2022-07-26T15:16:20.281Z,3148
2022-07-26T15:21:43.612Z,831.9
2022-07-26T15:27:04.212Z,327.7
2022-07-26T15:32:25.540Z,159.6
2022-07-26T15:37:47.655Z,941.1
2022-07-26T15:43:11.975Z,857.1
2022-07-26T15:48:34.183Z,623
2022-07-26T15:54:04.076Z,1105.1
2022-07-26T15:59:27.357Z,957.2
2022-07-26T16:04:49.714Z,621
2022-07-26T16:10:11.465Z,327.3
2022-07-26T16:15:33.339Z,259.3
2022-07-26T16:37:25.845Z,357.5
2022-07-26T16:42:48.425Z,356.3
2022-07-26T16:48:10.629Z,454.9
2022-07-26T16:53:33.070Z,426.4
2022-07-26T16:58:57.905Z,332.9
2022-07-26T17:04:21.164Z,274.9
2022-07-26T17:09:43.319Z,302.1
2022-07-26T17:15:05.537Z,239.3
2022-07-26T17:20:27.745Z,235.5
2022-07-26T17:25:50.218Z,260.1
2022-07-26T17:36:46.906Z,252.1
2022-07-26T17:42:15.077Z,245.3
2022-07-26T17:47:37.574Z,281.8
2022-07-26T17:53:00.104Z,332.4
2022-07-26T17:58:22.488Z,336.5
2022-07-26T18:03:44.754Z,331.1
2022-07-26T18:19:56.499Z,211.7
2022-07-26T18:25:19.155Z,194
2022-07-26T18:30:41.354Z,148.6
2022-07-26T18:36:03.625Z,145.4
2022-07-26T18:41:25.957Z,120.7
2022-07-26T18:46:48.843Z,85.3
2022-07-26T18:52:12.254Z,57.2
2022-07-26T18:57:35.201Z,50.2
2022-07-26T19:02:57.550Z,40.5
2022-07-26T19:08:20.117Z,36.5
2022-07-26T19:13:42.731Z,28.9
2022-07-26T19:19:05.002Z,23
2022-07-26T19:24:27.420Z,17.6
2022-07-26T19:29:49.803Z,13
2022-07-26T19:35:12.307Z,7
2022-07-26T19:40:34.831Z,6
2022-07-26T19:45:57.356Z,0
2022-07-26T20:02:04.730Z,0
2022-07-26T20:07:27.508Z,0
2022-07-26T20:12:50.233Z,0
2022-07-26T20:18:12.408Z,0
2022-07-26T20:23:34.967Z,0
2022-07-26T20:28:57.146Z,0
2022-07-26T20:34:19.730Z,0
2022-07-26T20:39:42.098Z,0
2022-07-26T20:45:04.525Z,0
2022-07-26T20:50:27.335Z,0
2022-07-26T20:55:49.999Z,0
2022-07-26T21:01:12.739Z,0
2022-07-26T21:06:35.864Z,0
2022-07-26T21:12:02.361Z,0
2022-07-26T21:17:35.065Z,0
2022-07-26T21:23:17.605Z,0
2022-07-26T21:28:42.654Z,0
2022-07-26T21:34:05.142Z,0
2022-07-26T21:39:45.886Z,0
2022-07-26T21:50:30.870Z,0
2022-07-26T21:55:53.095Z,0
2022-07-26T22:01:15.622Z,0
2022-07-26T22:06:38.403Z,0
2022-07-26T22:12:00.804Z,0
2022-07-26T22:17:23.596Z,0
2022-07-26T22:22:46.113Z,0
2022-07-26T22:28:08.474Z,0
2022-07-26T22:33:31.027Z,0
2022-07-26T22:38:53.272Z,0
2022-07-26T22:44:15.632Z,0
2022-07-26T22:49:55.627Z,0
2022-07-26T22:55:18.077Z,0
2022-07-26T23:00:41.557Z,0
2022-07-26T23:06:18.619Z,0
2022-07-26T23:11:55.186Z,0
2022-07-26T23:17:17.549Z,0
2022-07-26T23:22:39.849Z,0
2022-07-26T23:33:56.623Z,0
2022-07-26T23:39:19.503Z,0
2022-07-26T23:44:42.021Z,0
2022-07-26T23:50:21.995Z,0
2022-07-26T23:55:49.352Z,0
